Aeroboteco Virtual Airlines! Uma nuvem a frente.



 INFORMAÇÕES METEOROLÓGICAS
METAR FOR SBSM
ADDS - METARS form results

(0900 UTC 24 June 2019)
Data provider http://aviationweather.gov/metar/data/
 
Forecast for: SBSM (SANTA MARIA(CV/M, BR)
Text: TAF SBSM 240300Z 2406/2418 34008KT CAVOK TN16/2408Z TX28/2418Z RMK PDJ
Forecast period: 0600 to 1800 UTC 24 June 2019
Forecast type: FROM: standard forecast or significant change
Winds: from the NNW (340 degrees) at 9 MPH (8 knots; 4.1 m/s)
Visibility: 6 or more miles 10+ km)
Ceiling: unknown
Clouds: missing
Weather: no significant weather forecast for this period

 MAPA DO AEROPORTO

 INFORMAÇÕES DA PISTA
Pista 11 Tamanho da pista 8858 ft Largura da pista 148 ft
Elevação da pista 0 ft Ranhura da pista 0 ft Proa da pista 0
Pista 29 Tamanho da pista 8858 ft Largura da pista 148 ft
Elevação da pista 0 ft Ranhura da pista 0 ft Proa da pista 0
Pista 2 Tamanho da pista 4593 ft Largura da pista 98 ft
Elevação da pista 0 ft Ranhura da pista 0 ft Proa da pista 0
Pista 20 Tamanho da pista 4593 ft Largura da pista 98 ft
Elevação da pista 0 ft Ranhura da pista 0 ft Proa da pista 0

 FREQUÊNCIAS DO AEROPORTO
Tipo APP Nome APP Frequência 119.35 MHZ
Tipo TWR Nome TWR Frequência 118.3 MHZ

 AUXÍLIOS DE NAVEGAÇÃO PRÓXIMOS AO AEROPORTO
Tipo VOR-DME Nome Santa Maria Frequência 112000 KHZ
Tipo NDB Nome Santa Maria Frequência 365 KHZ
Tipo NDB Nome Cerrito Frequência 210 KHZ